createdAt,value
2019-05-26T00:00:34.615Z,0.00
2019-05-26T00:01:34.513Z,0.00
2019-05-26T00:02:34.550Z,0.00
2019-05-26T00:03:34.501Z,0.00
2019-05-26T00:04:34.524Z,0.00
2019-05-26T00:05:34.480Z,0.00
2019-05-26T00:06:34.443Z,0.00
2019-05-26T00:07:34.488Z,0.00
2019-05-26T00:08:34.422Z,0.00
2019-05-26T00:09:34.450Z,0.00
2019-05-26T00:10:34.474Z,0.00
2019-05-26T00:11:34.384Z,0.00
2019-05-26T00:12:34.384Z,0.00
2019-05-26T00:13:34.369Z,0.00
2019-05-26T00:14:34.371Z,0.00
2019-05-26T00:15:34.414Z,0.00
2019-05-26T00:16:34.372Z,0.00
2019-05-26T00:17:34.323Z,0.00
2019-05-26T00:18:34.409Z,0.00
2019-05-26T00:19:34.297Z,0.00
2019-05-26T00:20:34.356Z,0.00
2019-05-26T00:21:34.309Z,0.00
2019-05-26T00:22:34.271Z,0.00
2019-05-26T00:23:34.282Z,0.00
2019-05-26T00:24:34.355Z,0.00
2019-05-26T00:25:34.286Z,0.00
2019-05-26T00:26:34.295Z,0.00
2019-05-26T00:27:34.255Z,0.00
2019-05-26T00:28:34.239Z,0.00
2019-05-26T00:29:34.229Z,0.00
2019-05-26T00:30:34.224Z,0.00
2019-05-26T00:31:34.223Z,0.00
2019-05-26T00:32:34.173Z,0.00
2019-05-26T00:33:34.147Z,0.00
2019-05-26T00:34:34.177Z,0.00
2019-05-26T00:35:34.194Z,0.00
2019-05-26T00:36:34.225Z,0.00
2019-05-26T00:37:48.649Z,0.00
2019-05-26T00:38:35.138Z,0.00
2019-05-26T00:39:34.128Z,0.00
2019-05-26T00:40:34.115Z,0.00
2019-05-26T00:41:34.076Z,0.00
2019-05-26T00:42:34.086Z,0.00
2019-05-26T00:43:34.071Z,0.00
2019-05-26T00:44:34.041Z,0.00
2019-05-26T00:45:34.080Z,0.00
2019-05-26T00:46:34.102Z,0.00
2019-05-26T00:47:34.062Z,0.00
2019-05-26T00:48:34.032Z,0.00
2019-05-26T00:49:34.045Z,0.00
2019-05-26T00:50:33.956Z,0.00
2019-05-26T00:51:34.108Z,0.00
2019-05-26T00:52:34.026Z,0.00
2019-05-26T00:53:33.954Z,0.00
2019-05-26T00:54:33.955Z,0.00
2019-05-26T00:55:33.957Z,0.00
2019-05-26T00:56:33.958Z,0.00
2019-05-26T00:57:33.952Z,0.00
2019-05-26T00:58:33.871Z,0.00
2019-05-26T00:59:33.858Z,0.00
2019-05-26T01:00:33.866Z,0.00
2019-05-26T01:01:33.906Z,0.00
2019-05-26T01:02:33.860Z,0.00
2019-05-26T01:03:33.834Z,0.00
2019-05-26T01:04:33.849Z,0.00
2019-05-26T01:05:33.791Z,0.00
2019-05-26T01:06:33.829Z,0.00
2019-05-26T01:07:33.767Z,0.00
2019-05-26T01:08:33.771Z,0.00
2019-05-26T01:09:33.764Z,0.00
2019-05-26T01:10:33.806Z,0.00
2019-05-26T01:11:33.746Z,0.00
2019-05-26T01:12:33.762Z,0.00
2019-05-26T01:13:33.717Z,0.00
2019-05-26T01:14:33.714Z,0.00
2019-05-26T01:15:33.697Z,0.00
2019-05-26T01:16:33.669Z,0.00
2019-05-26T01:17:33.683Z,0.00
2019-05-26T01:18:33.673Z,0.00
2019-05-26T01:19:33.683Z,0.00
2019-05-26T01:20:33.644Z,0.00
2019-05-26T01:21:33.632Z,0.00
2019-05-26T01:22:33.641Z,0.00
2019-05-26T01:23:33.631Z,0.00
2019-05-26T01:24:33.593Z,0.00
2019-05-26T01:25:33.567Z,0.00
2019-05-26T01:26:33.556Z,0.00
2019-05-26T01:27:33.617Z,0.00
2019-05-26T01:28:33.536Z,0.00
2019-05-26T01:29:33.524Z,0.00
2019-05-26T01:30:33.534Z,0.00
2019-05-26T01:31:33.528Z,0.00
2019-05-26T01:32:33.557Z,0.00
2019-05-26T01:33:33.482Z,0.00
2019-05-26T01:34:33.521Z,0.00
2019-05-26T01:35:33.485Z,0.00
2019-05-26T01:36:33.455Z,0.00
2019-05-26T01:37:33.463Z,0.00
2019-05-26T01:38:33.473Z,0.00
2019-05-26T01:39:33.426Z,0.00
2019-05-26T01:40:33.410Z,0.00
2019-05-26T01:41:33.436Z,0.00
2019-05-26T01:42:33.476Z,0.00
2019-05-26T01:43:33.378Z,0.00
2019-05-26T01:44:33.430Z,0.00
2019-05-26T01:45:33.373Z,0.00
2019-05-26T01:46:33.368Z,0.00
2019-05-26T01:47:33.433Z,0.00
2019-05-26T01:48:33.343Z,0.00
2019-05-26T01:49:33.332Z,0.00
2019-05-26T01:50:33.312Z,0.00
2019-05-26T01:51:33.283Z,0.00
2019-05-26T01:52:33.291Z,0.00
2019-05-26T01:53:33.341Z,0.00
2019-05-26T01:54:33.264Z,0.00
2019-05-26T01:55:33.253Z,0.00
2019-05-26T01:56:33.255Z,0.00
2019-05-26T01:57:33.238Z,0.00
2019-05-26T01:58:33.263Z,0.00
2019-05-26T01:59:33.219Z,0.00
2019-05-26T02:00:33.213Z,0.00
2019-05-26T02:01:33.187Z,0.00
2019-05-26T02:02:33.179Z,0.00
2019-05-26T02:03:33.199Z,0.00
2019-05-26T02:04:33.154Z,0.00
2019-05-26T02:05:33.163Z,0.00
2019-05-26T02:06:33.169Z,0.00
2019-05-26T02:07:33.133Z,0.00
2019-05-26T02:08:39.509Z,0.00
2019-05-26T02:09:34.132Z,0.00
2019-05-26T02:10:33.079Z,0.00
2019-05-26T02:11:33.094Z,0.00
2019-05-26T02:12:33.058Z,0.00
2019-05-26T02:13:33.065Z,0.00
2019-05-26T02:14:33.031Z,0.00
2019-05-26T02:15:33.030Z,0.00
2019-05-26T02:16:33.052Z,0.00
2019-05-26T02:17:33.047Z,0.00
2019-05-26T02:18:33.068Z,0.00
2019-05-26T02:19:32.987Z,0.00
2019-05-26T02:20:32.997Z,0.00
2019-05-26T02:21:33.037Z,0.00
2019-05-26T02:22:32.984Z,0.00
2019-05-26T02:23:33.021Z,0.00
2019-05-26T02:24:32.990Z,0.00
2019-05-26T02:25:32.951Z,0.00
2019-05-26T02:26:32.923Z,0.00
2019-05-26T02:27:32.916Z,0.00
2019-05-26T02:28:32.934Z,0.00
2019-05-26T02:29:32.947Z,0.00
2019-05-26T02:30:32.856Z,0.00
2019-05-26T02:31:32.887Z,0.00
2019-05-26T02:32:32.870Z,0.00
2019-05-26T02:33:32.826Z,0.00
2019-05-26T02:34:32.882Z,0.00
2019-05-26T02:35:32.851Z,0.00
2019-05-26T02:36:32.844Z,0.00
2019-05-26T02:37:32.808Z,0.00
2019-05-26T02:38:32.802Z,0.00
2019-05-26T02:39:32.820Z,0.00
2019-05-26T02:40:32.793Z,0.00
2019-05-26T02:41:32.766Z,0.00
2019-05-26T02:42:32.729Z,0.00
2019-05-26T02:43:32.712Z,0.00
2019-05-26T02:44:32.751Z,0.00
2019-05-26T02:45:32.723Z,0.00
2019-05-26T02:46:32.725Z,0.00
2019-05-26T02:47:32.697Z,0.00
2019-05-26T02:48:32.677Z,0.00
2019-05-26T02:49:32.700Z,0.00
2019-05-26T02:50:32.642Z,4.00
2019-05-26T02:51:32.642Z,4.00
2019-05-26T02:52:32.617Z,4.00
2019-05-26T02:53:32.611Z,4.00
2019-05-26T02:54:32.643Z,0.00
2019-05-26T02:55:32.610Z,4.00
2019-05-26T02:56:32.633Z,4.00
2019-05-26T02:57:32.584Z,4.00
2019-05-26T02:58:32.572Z,4.00
2019-05-26T02:59:32.603Z,4.00
2019-05-26T03:02:03.143Z,8.00
2019-05-26T03:02:53.932Z,8.00
2019-05-26T03:03:52.916Z,8.00
2019-05-26T03:04:53.018Z,8.00
2019-05-26T03:05:52.920Z,8.00
2019-05-26T03:06:52.877Z,12.00
2019-05-26T03:07:52.874Z,12.00
2019-05-26T03:08:52.855Z,16.00
2019-05-26T03:09:52.848Z,16.00
2019-05-26T03:10:52.824Z,16.00
2019-05-26T03:11:52.808Z,20.00
2019-05-26T03:12:52.821Z,20.00
2019-05-26T03:13:52.803Z,24.00
2019-05-26T03:14:52.795Z,24.00
2019-05-26T03:15:52.765Z,28.00
2019-05-26T03:16:52.750Z,32.00
2019-05-26T03:17:52.762Z,36.00
2019-05-26T03:18:52.735Z,36.00
2019-05-26T03:19:52.792Z,40.00
2019-05-26T03:20:52.707Z,44.00
2019-05-26T03:21:52.714Z,48.00
2019-05-26T03:22:52.703Z,52.00
2019-05-26T03:23:52.733Z,56.00
2019-05-26T03:24:52.709Z,60.00
2019-05-26T03:25:52.671Z,68.00
2019-05-26T03:26:52.642Z,76.00
2019-05-26T03:27:52.649Z,84.00
2019-05-26T03:28:52.619Z,92.00
2019-05-26T03:29:52.635Z,100.00
2019-05-26T03:30:52.622Z,112.00
2019-05-26T03:31:52.659Z,120.00
2019-05-26T03:32:52.595Z,128.00
2019-05-26T03:33:52.630Z,140.00
2019-05-26T03:34:52.636Z,152.00
2019-05-26T03:35:52.553Z,160.00
2019-05-26T03:36:52.532Z,172.00
2019-05-26T03:37:52.550Z,184.00
2019-05-26T03:38:52.538Z,196.00
2019-05-26T03:39:52.570Z,208.00
2019-05-26T03:40:52.536Z,224.00
2019-05-26T03:41:52.501Z,240.00
2019-05-26T03:42:52.510Z,252.00
2019-05-26T03:43:52.459Z,264.00
2019-05-26T03:44:52.593Z,272.00
2019-05-26T03:45:52.436Z,284.00
2019-05-26T03:46:52.453Z,296.00
2019-05-26T03:47:52.427Z,308.00
2019-05-26T03:48:52.408Z,324.00
2019-05-26T03:49:52.392Z,336.00
2019-05-26T03:50:52.413Z,352.00
2019-05-26T03:51:52.367Z,368.00
2019-05-26T03:52:52.359Z,376.00
2019-05-26T03:53:52.363Z,388.00
2019-05-26T03:54:52.333Z,400.00
2019-05-26T03:55:52.364Z,412.00
2019-05-26T03:56:52.360Z,420.00
2019-05-26T03:57:52.296Z,424.00
2019-05-26T03:58:52.290Z,432.00
2019-05-26T03:59:52.301Z,444.00
2019-05-26T04:00:52.288Z,456.00
2019-05-26T04:01:57.299Z,464.00
2019-05-26T04:02:53.244Z,472.00
2019-05-26T04:03:52.237Z,480.00
2019-05-26T04:04:52.271Z,492.00
2019-05-26T04:05:52.242Z,500.00
2019-05-26T04:06:52.206Z,516.00
2019-05-26T04:07:52.222Z,532.00
2019-05-26T04:08:52.179Z,540.00
2019-05-26T04:10:03.859Z,544.00
2019-05-26T04:10:53.203Z,552.00
2019-05-26T04:11:52.175Z,552.00
2019-05-26T04:12:52.224Z,556.00
2019-05-26T04:13:52.143Z,560.00
2019-05-26T04:14:52.140Z,564.00
2019-05-26T04:15:52.149Z,568.00
2019-05-26T04:16:52.139Z,580.00
2019-05-26T04:17:52.144Z,588.00
2019-05-26T04:18:52.141Z,600.00
2019-05-26T04:19:52.088Z,612.00
2019-05-26T04:20:52.095Z,616.00
2019-05-26T04:21:52.039Z,624.00
2019-05-26T04:22:52.065Z,632.00
2019-05-26T04:23:52.040Z,644.00
2019-05-26T04:24:52.024Z,660.00
2019-05-26T04:25:52.090Z,684.00
2019-05-26T04:26:52.016Z,704.00
2019-05-26T04:27:51.999Z,720.00
2019-05-26T04:28:51.985Z,744.00
2019-05-26T04:29:51.969Z,764.00
2019-05-26T04:30:51.975Z,788.00
2019-05-26T04:31:51.925Z,812.00
2019-05-26T04:32:51.919Z,832.00
2019-05-26T04:33:51.908Z,860.00
2019-05-26T04:34:51.922Z,888.00
2019-05-26T04:35:51.913Z,928.00
2019-05-26T04:36:51.918Z,972.00
2019-05-26T04:37:51.862Z,1016.00
2019-05-26T04:38:51.874Z,1060.00
2019-05-26T04:39:51.838Z,1100.00
2019-05-26T04:40:51.874Z,1144.00
2019-05-26T04:41:52.003Z,1184.00
2019-05-26T04:42:51.807Z,1228.00
2019-05-26T04:43:51.846Z,1272.00
2019-05-26T04:44:51.805Z,1308.00
2019-05-26T04:45:51.828Z,1324.00
2019-05-26T04:46:51.816Z,1340.00
2019-05-26T04:47:51.841Z,1336.00
2019-05-26T04:48:51.737Z,1340.00
2019-05-26T04:49:51.749Z,1340.00
2019-05-26T04:50:51.736Z,1340.00
2019-05-26T04:51:51.739Z,1360.00
2019-05-26T04:53:05.251Z,1368.00
2019-05-26T04:53:52.680Z,1408.00
2019-05-26T04:54:51.698Z,1448.00
2019-05-26T04:55:51.702Z,1432.00
2019-05-26T04:56:51.656Z,1528.00
2019-05-26T04:57:51.720Z,1552.00
2019-05-26T04:58:51.666Z,1552.00
2019-05-26T04:59:51.631Z,1564.00
2019-05-26T05:00:51.625Z,1680.00
2019-05-26T05:01:51.670Z,1760.00
2019-05-26T05:02:51.587Z,1816.00
2019-05-26T05:03:51.578Z,1780.00
2019-05-26T05:04:51.567Z,1748.00
2019-05-26T05:05:51.580Z,1724.00
2019-05-26T05:06:51.562Z,1664.00
2019-05-26T05:07:51.529Z,1688.00
2019-05-26T05:08:51.514Z,1732.00
2019-05-26T05:09:51.517Z,1772.00
2019-05-26T05:10:51.493Z,1808.00
2019-05-26T05:11:51.547Z,1856.00
2019-05-26T05:12:51.477Z,1916.00
2019-05-26T05:13:51.468Z,1976.00
2019-05-26T05:14:51.469Z,2068.00
2019-05-26T05:15:51.461Z,2216.00
2019-05-26T05:16:51.494Z,2292.00
2019-05-26T05:17:51.413Z,2288.00
2019-05-26T05:18:51.409Z,2228.00
2019-05-26T05:19:51.398Z,2212.00
2019-05-26T05:20:51.389Z,2268.00
2019-05-26T05:21:51.417Z,2268.00
2019-05-26T05:22:51.398Z,2240.00
2019-05-26T05:23:51.374Z,2188.00
2019-05-26T05:24:51.349Z,2152.00
2019-05-26T05:25:51.334Z,2132.00
2019-05-26T05:26:51.430Z,2136.00
2019-05-26T05:27:51.448Z,2180.00
2019-05-26T05:28:51.329Z,2240.00
2019-05-26T05:29:51.291Z,2316.00
2019-05-26T05:30:51.303Z,2380.00
2019-05-26T05:31:51.353Z,2380.00
2019-05-26T05:32:51.276Z,2372.00
2019-05-26T05:33:51.260Z,2288.00
2019-05-26T05:34:51.237Z,2240.00
2019-05-26T05:35:51.234Z,2188.00
2019-05-26T05:36:51.234Z,2180.00
2019-05-26T05:37:51.199Z,2248.00
2019-05-26T05:38:51.194Z,2336.00
2019-05-26T05:39:51.205Z,2424.00
2019-05-26T05:40:59.422Z,2436.00
2019-05-26T05:41:52.181Z,2272.00
2019-05-26T05:42:51.170Z,2220.00
2019-05-26T05:43:51.137Z,2152.00
2019-05-26T05:44:51.127Z,2060.00
2019-05-26T05:45:51.115Z,2020.00
2019-05-26T05:46:51.147Z,1968.00
2019-05-26T05:47:51.086Z,1924.00
2019-05-26T05:48:51.095Z,1900.00
2019-05-26T05:49:51.113Z,1896.00
2019-05-26T05:50:51.141Z,1892.00
2019-05-26T05:51:51.112Z,1892.00
2019-05-26T05:52:51.065Z,1908.00
2019-05-26T05:53:51.058Z,1924.00
2019-05-26T05:54:51.010Z,1940.00
2019-05-26T05:55:51.070Z,1948.00
2019-05-26T05:56:51.086Z,1944.00
2019-05-26T05:57:51.006Z,1936.00
2019-05-26T05:58:50.982Z,1940.00
2019-05-26T05:59:50.978Z,1944.00
2019-05-26T06:00:50.996Z,1948.00
2019-05-26T06:01:50.996Z,1960.00
2019-05-26T06:02:50.920Z,1964.00
2019-05-26T06:03:50.908Z,1964.00
2019-05-26T06:04:50.897Z,1968.00
2019-05-26T06:05:50.913Z,1980.00
2019-05-26T06:06:50.937Z,1992.00
2019-05-26T06:07:50.861Z,1996.00
2019-05-26T06:08:50.937Z,2008.00
2019-05-26T06:09:50.855Z,2032.00
2019-05-26T06:10:50.830Z,2048.00
2019-05-26T06:11:54.424Z,2048.00
2019-05-26T06:12:51.820Z,2048.00
2019-05-26T06:13:50.793Z,2056.00
2019-05-26T06:14:50.819Z,2060.00
2019-05-26T06:15:50.767Z,2068.00
2019-05-26T06:16:50.780Z,2084.00
2019-05-26T06:17:50.752Z,2100.00
2019-05-26T06:18:50.759Z,2116.00
2019-05-26T06:19:50.751Z,2132.00
2019-05-26T06:20:50.735Z,2140.00
2019-05-26T06:21:50.885Z,2156.00
2019-05-26T06:22:50.694Z,2176.00
2019-05-26T06:23:50.787Z,2188.00
2019-05-26T06:24:50.685Z,2200.00
2019-05-26T06:25:50.662Z,2220.00
2019-05-26T06:26:50.693Z,2224.00
2019-05-26T06:27:50.632Z,2240.00
2019-05-26T06:28:52.553Z,2256.00
2019-05-26T06:29:58.843Z,2280.00
2019-05-26T06:30:51.662Z,2316.00
2019-05-26T06:31:50.798Z,2372.00
2019-05-26T06:32:50.590Z,2412.00
2019-05-26T06:33:50.581Z,2440.00
2019-05-26T06:34:50.562Z,2388.00
2019-05-26T06:35:50.584Z,2508.00
2019-05-26T06:36:50.551Z,2536.00
2019-05-26T06:37:50.520Z,2548.00
2019-05-26T06:38:50.557Z,2548.00
2019-05-26T06:39:50.517Z,2552.00
2019-05-26T06:40:50.526Z,2560.00
2019-05-26T06:41:50.474Z,2532.00
2019-05-26T06:42:50.477Z,2512.00
2019-05-26T06:43:50.446Z,2492.00
2019-05-26T06:44:53.918Z,2464.00
2019-05-26T06:45:50.469Z,2420.00
2019-05-26T06:46:50.452Z,2376.00
2019-05-26T06:47:50.431Z,2348.00
2019-05-26T06:48:50.424Z,2324.00
2019-05-26T06:49:50.399Z,2288.00
2019-05-26T06:50:50.422Z,2284.00
2019-05-26T06:51:50.384Z,2276.00
2019-05-26T06:52:50.352Z,2264.00
2019-05-26T06:53:50.343Z,2208.00
2019-05-26T06:54:50.348Z,2164.00
2019-05-26T06:55:50.327Z,2088.00
2019-05-26T06:56:50.338Z,2076.00
2019-05-26T06:57:50.319Z,1968.00
2019-05-26T06:58:50.289Z,1868.00
2019-05-26T06:59:50.272Z,1808.00
2019-05-26T07:00:50.293Z,1780.00
2019-05-26T07:01:50.285Z,1692.00
2019-05-26T07:02:50.278Z,1632.00
2019-05-26T07:03:50.234Z,1600.00
2019-05-26T07:04:50.219Z,1568.00
2019-05-26T07:05:50.240Z,1584.00
2019-05-26T07:06:50.243Z,1588.00
2019-05-26T07:07:50.230Z,1584.00
2019-05-26T07:08:50.208Z,1596.00
2019-05-26T07:09:50.213Z,1580.00
2019-05-26T07:10:50.193Z,1608.00
2019-05-26T07:11:57.297Z,1652.00
2019-05-26T07:12:51.202Z,1656.00
2019-05-26T07:13:50.145Z,1744.00
2019-05-26T07:14:50.162Z,1808.00
2019-05-26T07:15:50.120Z,1972.00
2019-05-26T07:16:50.114Z,2152.00
2019-05-26T07:17:50.085Z,1916.00
2019-05-26T07:18:50.066Z,1956.00
2019-05-26T07:19:50.067Z,2112.00
2019-05-26T07:20:50.048Z,2484.00
2019-05-26T07:21:50.087Z,2728.00
2019-05-26T07:22:50.030Z,2896.00
2019-05-26T07:23:50.034Z,2940.00
2019-05-26T07:24:50.034Z,2972.00
2019-05-26T07:25:50.017Z,2992.00
2019-05-26T07:26:50.066Z,3004.00
2019-05-26T07:27:50.013Z,2972.00
2019-05-26T07:28:49.970Z,2828.00
2019-05-26T07:29:49.948Z,2752.00
2019-05-26T07:30:49.976Z,2764.00
2019-05-26T07:31:49.971Z,2832.00
2019-05-26T07:32:49.977Z,2896.00
2019-05-26T07:33:49.934Z,2932.00
2019-05-26T07:34:49.936Z,2928.00
2019-05-26T07:35:50.097Z,2876.00
2019-05-26T07:36:49.906Z,2804.00
2019-05-26T07:37:49.890Z,2744.00
2019-05-26T07:38:49.894Z,2624.00
2019-05-26T07:39:49.906Z,2460.00
2019-05-26T07:40:49.884Z,2296.00
2019-05-26T07:42:08.156Z,2212.00
2019-05-26T07:42:50.825Z,2228.00
2019-05-26T07:43:49.821Z,2224.00
2019-05-26T07:44:49.821Z,2080.00
2019-05-26T07:45:49.817Z,1920.00
2019-05-26T07:46:49.799Z,1892.00
2019-05-26T07:47:49.801Z,1948.00
2019-05-26T07:48:49.758Z,1992.00
2019-05-26T07:49:49.745Z,1952.00
2019-05-26T07:50:49.783Z,1828.00
2019-05-26T07:51:49.747Z,1728.00
2019-05-26T07:52:49.776Z,1652.00
2019-05-26T07:53:49.700Z,1592.00
2019-05-26T07:54:49.676Z,1576.00
2019-05-26T07:55:49.673Z,1592.00
2019-05-26T07:56:49.654Z,1624.00
2019-05-26T07:57:49.709Z,1640.00
2019-05-26T07:58:49.634Z,1648.00
2019-05-26T07:59:49.620Z,1684.00
2019-05-26T08:00:49.626Z,1716.00
2019-05-26T08:01:49.614Z,1716.00
2019-05-26T08:02:49.689Z,1680.00
2019-05-26T08:03:49.575Z,1664.00
2019-05-26T08:04:49.587Z,1684.00
2019-05-26T08:05:49.599Z,1692.00
2019-05-26T08:06:49.557Z,1688.00
2019-05-26T08:07:49.579Z,1688.00
2019-05-26T08:08:49.545Z,1700.00
2019-05-26T08:09:49.513Z,1744.00
2019-05-26T08:10:49.521Z,1784.00
2019-05-26T08:11:49.483Z,1836.00
2019-05-26T08:12:49.538Z,1880.00
2019-05-26T08:13:57.562Z,1896.00
2019-05-26T08:14:49.464Z,1884.00
2019-05-26T08:15:49.441Z,1904.00
2019-05-26T08:16:49.433Z,1960.00
2019-05-26T08:17:49.443Z,2052.00
2019-05-26T08:18:49.411Z,2144.00
2019-05-26T08:19:49.426Z,2196.00
2019-05-26T08:20:49.394Z,2236.00
2019-05-26T08:21:49.379Z,2304.00
2019-05-26T08:22:49.389Z,2348.00
2019-05-26T08:23:49.369Z,2396.00
2019-05-26T08:24:49.351Z,2424.00
2019-05-26T08:25:49.376Z,2400.00
2019-05-26T08:26:49.319Z,2272.00
2019-05-26T08:27:49.344Z,2180.00
2019-05-26T08:28:49.301Z,2132.00
2019-05-26T08:29:49.289Z,2172.00
2019-05-26T08:30:49.284Z,2232.00
2019-05-26T08:31:49.269Z,2264.00
2019-05-26T08:32:49.304Z,2260.00
2019-05-26T08:33:49.267Z,2212.00
2019-05-26T08:34:49.239Z,2156.00
2019-05-26T08:35:49.245Z,2120.00
2019-05-26T08:36:49.224Z,2060.00
2019-05-26T08:37:49.242Z,2024.00
2019-05-26T08:38:49.189Z,2012.00
2019-05-26T08:39:49.180Z,1956.00
2019-05-26T08:40:49.199Z,1836.00
2019-05-26T08:41:49.166Z,1784.00
2019-05-26T08:42:49.181Z,1816.00
2019-05-26T08:43:49.151Z,1908.00
2019-05-26T08:44:49.126Z,1988.00
2019-05-26T08:45:49.117Z,2036.00
2019-05-26T08:46:49.114Z,1992.00
2019-05-26T08:47:49.123Z,1860.00
2019-05-26T08:48:49.086Z,1720.00
2019-05-26T08:49:49.077Z,1612.00
2019-05-26T08:50:49.058Z,1560.00
2019-05-26T08:51:49.047Z,1584.00
2019-05-26T08:52:49.043Z,1700.00
2019-05-26T08:53:49.051Z,1876.00
2019-05-26T08:54:49.019Z,2048.00
2019-05-26T08:55:49.009Z,2188.00
2019-05-26T08:56:48.989Z,2296.00
2019-05-26T08:57:48.984Z,2392.00
2019-05-26T08:58:49.000Z,2532.00
2019-05-26T08:59:48.964Z,2652.00
2019-05-26T09:00:48.970Z,2736.00
2019-05-26T09:01:48.946Z,2760.00
2019-05-26T09:02:48.934Z,2716.00
2019-05-26T09:03:48.959Z,2668.00
2019-05-26T09:04:48.904Z,2688.00
2019-05-26T09:05:48.890Z,2788.00
2019-05-26T09:06:48.898Z,2868.00
2019-05-26T09:07:48.882Z,2848.00
2019-05-26T09:08:48.880Z,2692.00
2019-05-26T09:09:48.908Z,2592.00
2019-05-26T09:10:48.846Z,2556.00
2019-05-26T09:11:48.828Z,2584.00
2019-05-26T09:13:00.114Z,2664.00
2019-05-26T09:13:49.826Z,2744.00
2019-05-26T09:14:48.799Z,2776.00
2019-05-26T09:15:48.808Z,2812.00
2019-05-26T09:16:48.803Z,2872.00
2019-05-26T09:17:48.784Z,2972.00
2019-05-26T09:18:48.770Z,3080.00
2019-05-26T09:19:48.759Z,3160.00
2019-05-26T09:20:48.749Z,3192.00
2019-05-26T09:21:48.740Z,3176.00
2019-05-26T09:22:48.767Z,3164.00
2019-05-26T09:23:48.717Z,3192.00
2019-05-26T09:24:48.708Z,3224.00
2019-05-26T09:25:48.707Z,3260.00
2019-05-26T09:26:48.657Z,3292.00
2019-05-26T09:27:48.653Z,3360.00
2019-05-26T09:28:48.741Z,3408.00
2019-05-26T09:29:48.657Z,3392.00
2019-05-26T09:30:48.657Z,3376.00
2019-05-26T09:31:48.615Z,3376.00
2019-05-26T09:32:48.620Z,3392.00
2019-05-26T09:33:48.613Z,3408.00
2019-05-26T09:34:48.589Z,3420.00
2019-05-26T09:35:48.574Z,3428.00
2019-05-26T09:36:48.616Z,3460.00
2019-05-26T09:37:48.580Z,3460.00
2019-05-26T09:38:48.568Z,3412.00
2019-05-26T09:39:48.516Z,3344.00
2019-05-26T09:40:48.540Z,3268.00
2019-05-26T09:41:48.523Z,3256.00
2019-05-26T09:42:48.519Z,3324.00
2019-05-26T09:43:48.525Z,3404.00
2019-05-26T09:44:48.470Z,3488.00
2019-05-26T09:45:48.480Z,3540.00
2019-05-26T09:46:48.482Z,3512.00
2019-05-26T09:47:48.440Z,3372.00
2019-05-26T09:48:48.444Z,3176.00
2019-05-26T09:49:48.407Z,3028.00
2019-05-26T09:50:48.406Z,2944.00
2019-05-26T09:51:48.395Z,2848.00
2019-05-26T09:52:48.386Z,2816.00
2019-05-26T09:54:00.881Z,2868.00
2019-05-26T09:54:49.386Z,3028.00
2019-05-26T09:55:48.367Z,3228.00
2019-05-26T09:56:48.332Z,3388.00
2019-05-26T09:57:48.347Z,3456.00
2019-05-26T09:58:48.408Z,3504.00
2019-05-26T09:59:48.349Z,3504.00
2019-05-26T10:00:48.329Z,3516.00
2019-05-26T10:01:48.286Z,3540.00
2019-05-26T10:02:48.268Z,3528.00
2019-05-26T10:03:48.291Z,3536.00
2019-05-26T10:04:48.256Z,3600.00
2019-05-26T10:05:48.245Z,3660.00
2019-05-26T10:06:48.243Z,3676.00
2019-05-26T10:07:48.211Z,3680.00
2019-05-26T10:08:48.233Z,3668.00
2019-05-26T10:09:48.193Z,3648.00
2019-05-26T10:10:48.181Z,3560.00
2019-05-26T10:11:48.169Z,3496.00
2019-05-26T10:12:48.157Z,3480.00
2019-05-26T10:13:48.192Z,3472.00
2019-05-26T10:14:48.137Z,3452.00
2019-05-26T10:15:48.151Z,3432.00
2019-05-26T10:16:48.138Z,3364.00
2019-05-26T10:17:48.136Z,3252.00
2019-05-26T10:18:48.153Z,3152.00
2019-05-26T10:19:48.089Z,3100.00
2019-05-26T10:20:48.072Z,3084.00
2019-05-26T10:21:48.084Z,3104.00
2019-05-26T10:22:48.056Z,3152.00
2019-05-26T10:23:48.256Z,3216.00
2019-05-26T10:24:48.030Z,3288.00
2019-05-26T10:25:48.029Z,3344.00
2019-05-26T10:26:48.063Z,3368.00
2019-05-26T10:27:48.000Z,3380.00
2019-05-26T10:28:47.988Z,3372.00
2019-05-26T10:29:48.021Z,3312.00
2019-05-26T10:30:48.008Z,3204.00
2019-05-26T10:31:48.033Z,3088.00
2019-05-26T10:32:48.060Z,3044.00
2019-05-26T10:33:47.979Z,3124.00
2019-05-26T10:34:47.954Z,3280.00
2019-05-26T10:35:47.958Z,3444.00
2019-05-26T10:36:47.898Z,3548.00
2019-05-26T10:37:47.895Z,3628.00
2019-05-26T10:38:47.913Z,3688.00
2019-05-26T10:39:47.920Z,3736.00
2019-05-26T10:40:47.851Z,3768.00
2019-05-26T10:41:47.843Z,3768.00
2019-05-26T10:42:47.865Z,3768.00
2019-05-26T10:43:48.047Z,3780.00
2019-05-26T10:44:47.843Z,3796.00
2019-05-26T10:45:47.821Z,3764.00
2019-05-26T10:46:47.845Z,3716.00
2019-05-26T10:47:47.782Z,3680.00
2019-05-26T10:48:47.763Z,3692.00
2019-05-26T10:49:47.784Z,3776.00
2019-05-26T10:50:47.764Z,3840.00
2019-05-26T10:51:47.728Z,3840.00
2019-05-26T10:52:47.721Z,3808.00
2019-05-26T10:53:47.708Z,3760.00
2019-05-26T10:54:47.716Z,3728.00
2019-05-26T10:55:47.692Z,3708.00
2019-05-26T10:56:47.705Z,3672.00
2019-05-26T10:57:47.677Z,3592.00
2019-05-26T10:58:47.683Z,3516.00
2019-05-26T10:59:47.668Z,3424.00
2019-05-26T11:00:47.657Z,3356.00
2019-05-26T11:01:47.631Z,3288.00
2019-05-26T11:02:47.622Z,3340.00
2019-05-26T11:03:47.624Z,3460.00
2019-05-26T11:04:47.661Z,3592.00
2019-05-26T11:05:47.589Z,3664.00
2019-05-26T11:06:47.594Z,3664.00
2019-05-26T11:07:47.558Z,3648.00
2019-05-26T11:08:47.566Z,3628.00
2019-05-26T11:09:47.577Z,3612.00
2019-05-26T11:10:47.524Z,3580.00
2019-05-26T11:11:47.511Z,3520.00
2019-05-26T11:12:47.525Z,3472.00
2019-05-26T11:14:01.894Z,3404.00
2019-05-26T11:14:48.553Z,3320.00
2019-05-26T11:15:47.532Z,3272.00
2019-05-26T11:16:47.472Z,3184.00
2019-05-26T11:17:47.481Z,3100.00
2019-05-26T11:18:47.435Z,3052.00
2019-05-26T11:19:47.458Z,3048.00
2019-05-26T11:20:47.436Z,3068.00
2019-05-26T11:21:47.445Z,3156.00
2019-05-26T11:22:47.403Z,3368.00
2019-05-26T11:23:47.393Z,3620.00
2019-05-26T11:24:47.413Z,3768.00
2019-05-26T11:25:47.375Z,3852.00
2019-05-26T11:26:47.355Z,3844.00
2019-05-26T11:27:47.341Z,3796.00
2019-05-26T11:28:47.327Z,3740.00
2019-05-26T11:29:47.320Z,3676.00
2019-05-26T11:30:47.328Z,3608.00
2019-05-26T11:31:47.311Z,3572.00
2019-05-26T11:32:47.311Z,3580.00
2019-05-26T11:33:47.270Z,3604.00
2019-05-26T11:35:00.636Z,3656.00
2019-05-26T11:35:48.289Z,3700.00
2019-05-26T11:36:47.277Z,3736.00
2019-05-26T11:37:47.249Z,3732.00
2019-05-26T11:38:47.224Z,3720.00
2019-05-26T11:39:47.219Z,3728.00
2019-05-26T11:40:47.766Z,3768.00
2019-05-26T11:41:54.561Z,3676.00
2019-05-26T11:42:48.201Z,3624.00
2019-05-26T11:43:47.167Z,3548.00
2019-05-26T11:44:47.226Z,3432.00
2019-05-26T11:45:47.184Z,3324.00
2019-05-26T11:46:47.139Z,3232.00
2019-05-26T11:47:47.116Z,3184.00
2019-05-26T11:48:47.140Z,3152.00
2019-05-26T11:49:47.120Z,3156.00
2019-05-26T11:50:47.178Z,3196.00
2019-05-26T11:51:47.110Z,3260.00
2019-05-26T11:52:47.124Z,3324.00
2019-05-26T11:53:47.057Z,3356.00
2019-05-26T11:54:47.093Z,3328.00
2019-05-26T11:55:47.090Z,3304.00
2019-05-26T11:56:47.021Z,3308.00
2019-05-26T11:57:47.011Z,3344.00
2019-05-26T11:58:47.008Z,3352.00
2019-05-26T11:59:47.513Z,3424.00
2019-05-26T12:00:47.005Z,3508.00
2019-05-26T12:01:46.979Z,3608.00
2019-05-26T12:02:46.952Z,3684.00
2019-05-26T12:03:46.970Z,3728.00
2019-05-26T12:04:46.961Z,3744.00
2019-05-26T12:05:46.946Z,3748.00
2019-05-26T12:06:46.944Z,3792.00
2019-05-26T12:07:46.909Z,3852.00
2019-05-26T12:08:46.893Z,3836.00
2019-05-26T12:09:46.890Z,3832.00
2019-05-26T12:10:46.890Z,3780.00
2019-05-26T12:11:46.894Z,3700.00
2019-05-26T12:12:46.863Z,3768.00
2019-05-26T12:13:46.868Z,3800.00
2019-05-26T12:14:46.829Z,3864.00
2019-05-26T12:15:46.899Z,3904.00
2019-05-26T12:16:46.816Z,3844.00
2019-05-26T12:17:46.813Z,3704.00
2019-05-26T12:18:46.785Z,3660.00
2019-05-26T12:19:46.771Z,3412.00
2019-05-26T12:20:46.758Z,3080.00
2019-05-26T12:21:46.779Z,2988.00
2019-05-26T12:22:46.788Z,2928.00
2019-05-26T12:23:46.762Z,2920.00
2019-05-26T12:24:46.719Z,2948.00
2019-05-26T12:25:46.705Z,3084.00
2019-05-26T12:26:46.775Z,3284.00
2019-05-26T12:27:46.686Z,3184.00